Aeroporto :
LOGIN :

Iscrizione | Disclaimer

   EN    FR    IT 

 










Sommario :    VFR   VFR Marginale   IFR   IFR Intensivo   IFR Molto Intensivo
Visibilità : 
Base nubi : 
>= 8 km
>= 3000ft
5 / 8 km
1000 / 3000 ft
1500m / 5 km
500 / 1000 ft
800 / 1500m
200 / 500 ft
< 800m
< 200 ft
Simboli :   Temporali  Nebbia  Neve Forte  Precipitazioni Forti  Vento > 20 kt
SIGMETs :   Varie  Temporali  Ghiacco  Turbolenza  Onda orograficha  Ceneri Vulcaniche






- Altitudine del aeroporto : 425 ft
- Codice IATA : DTM


EDLW - Dortmund

ULTIMO METAR :
  • 282250Z AUTO 19010KT 9999 // FEW018/// BKN025/// OVC036/// 14/12 Q1014

METARs OBSOLETI :
  • 282220Z AUTO 19010KT 9999 // SCT022/// OVC028/// 14/12 Q1014
  • 282150Z AUTO 19012KT 9999 // BKN027/// OVC036/// 14/12 Q1014
  • 282120Z AUTO 19011KT 6000 // FEW013/// SCT042/// OVC055/// 13/12 Q1014
  • 282050Z AUTO 18011KT 9999 // FEW029/// OVC074/// 14/12 Q1014
  • 282020Z AUTO 18009KT 9999 // SCT038/// BKN046/// OVC058/// 14/12 Q1015
  • 281950Z 18008KT 9999 -RA BKN040 14/12 Q1015
  • 281920Z 19007KT 9999 -RA FEW040 BKN045 14/12 Q1015
  • 281850Z 19006KT 9999 -RA FEW048 14/12 Q1015
  • 281820Z 21006KT 9999 -RA FEW048 14/12 Q1016
  • 281750Z 22008KT 9999 -RA FEW047 14/12 Q1016

TAF TAF EDLW
Valido dal 28 a 18 ore il 29 a 18 ore UTC


281700Z 2818/2918 20010KT 9999 BKN030
TEMPO 2903/2907 RA
TEMPO 2907/2911 BKN011
TEMPO 2911/2915 23015KT SHRA BKN020CB
TEMPO 2915/2918 27015G30KT 4000 TSRA BKN015CB



MetMap, La meteo Aeronautica in un colpo d'occhio ! - Copyright ORBIFLY Dicembre 2007 - Disclaimer

ORBIFLY MET'MAP TEAM :

Programmazione e sviluppo : Alexandra Zaïnal
Concezione : Baudouin d'Aumeries
Supporto tecnico e logistico : Manuel Goepfert
Aiuto : Marc-Olivier Méhu
Aiuto per la traduzione : Arnaldo La Scala




FONTI E CREDITI :

   NOAA